createdAt,value
2024-05-09T00:00:44.210Z,10.18
2024-05-09T00:01:43.913Z,10.18
2024-05-09T00:02:43.860Z,10.20
2024-05-09T00:03:43.901Z,10.23
2024-05-09T00:04:43.907Z,10.17
2024-05-09T00:05:44.471Z,10.18
2024-05-09T00:06:43.806Z,10.20
2024-05-09T00:07:43.791Z,10.18
2024-05-09T00:08:43.852Z,10.18
2024-05-09T00:09:43.778Z,10.18
2024-05-09T00:10:43.911Z,10.20
2024-05-09T00:11:43.920Z,10.18
2024-05-09T00:12:43.743Z,10.18
2024-05-09T00:13:43.783Z,10.17
2024-05-09T00:14:43.720Z,10.18
2024-05-09T00:15:43.708Z,10.18
2024-05-09T00:16:43.728Z,10.14
2024-05-09T00:17:43.930Z,10.09
2024-05-09T00:18:43.724Z,10.11
2024-05-09T00:19:43.683Z,10.11
2024-05-09T00:20:43.745Z,10.08
2024-05-09T00:21:43.664Z,10.07
2024-05-09T00:22:43.649Z,10.05
2024-05-09T00:23:43.661Z,10.05
2024-05-09T00:24:43.619Z,10.02
2024-05-09T00:25:44.126Z,10.02
2024-05-09T00:26:43.627Z,10.01
2024-05-09T00:27:43.582Z,9.96
2024-05-09T00:28:43.683Z,9.99
2024-05-09T00:29:43.576Z,9.97
2024-05-09T00:30:43.562Z,9.96
2024-05-09T00:31:43.573Z,9.97
2024-05-09T00:32:43.726Z,9.96
2024-05-09T00:33:43.706Z,9.99
2024-05-09T00:34:43.563Z,9.99
2024-05-09T00:35:43.513Z,10.01
2024-05-09T00:36:43.496Z,10.04
2024-05-09T00:37:43.524Z,10.08
2024-05-09T00:38:43.494Z,10.07
2024-05-09T00:39:43.455Z,10.09
2024-05-09T00:40:43.903Z,10.11
2024-05-09T00:41:43.516Z,10.11
2024-05-09T00:42:43.431Z,10.12
2024-05-09T00:43:43.473Z,10.17
2024-05-09T00:44:43.405Z,10.17
2024-05-09T00:45:44.070Z,10.17
2024-05-09T00:46:43.416Z,10.18
2024-05-09T00:47:43.473Z,10.17
2024-05-09T00:48:43.414Z,10.17
2024-05-09T00:49:43.495Z,10.11
2024-05-09T00:50:43.363Z,10.09
2024-05-09T00:51:43.342Z,10.05
2024-05-09T00:52:43.383Z,10.01
2024-05-09T00:53:43.351Z,9.99
2024-05-09T00:54:43.308Z,9.94
2024-05-09T00:55:43.391Z,9.87
2024-05-09T00:56:43.289Z,9.87
2024-05-09T00:57:43.268Z,9.81
2024-05-09T00:58:43.308Z,9.81
2024-05-09T00:59:43.242Z,9.76
2024-05-09T01:00:43.354Z,9.75
2024-05-09T01:01:43.906Z,9.71
2024-05-09T01:02:43.296Z,9.65
2024-05-09T01:03:43.617Z,9.66
2024-05-09T01:04:43.298Z,9.61
2024-05-09T01:05:43.730Z,9.57
2024-05-09T01:06:43.205Z,9.54
2024-05-09T01:07:43.218Z,9.53
2024-05-09T01:08:43.255Z,9.46
2024-05-09T01:09:43.156Z,9.42
2024-05-09T01:10:45.196Z,9.39
2024-05-09T01:11:43.268Z,9.40
2024-05-09T01:12:43.134Z,9.38
2024-05-09T01:13:43.174Z,9.35
2024-05-09T01:14:43.109Z,9.33
2024-05-09T01:15:43.100Z,9.36
2024-05-09T01:16:43.133Z,9.32
2024-05-09T01:17:43.331Z,9.26
2024-05-09T01:18:43.173Z,9.28
2024-05-09T01:19:43.952Z,9.26
2024-05-09T01:20:44.904Z,9.21
2024-05-09T01:21:43.014Z,9.18
2024-05-09T01:22:43.058Z,9.15
2024-05-09T01:23:43.062Z,9.14
2024-05-09T01:24:43.010Z,9.11
2024-05-09T01:25:43.067Z,9.08
2024-05-09T01:26:42.982Z,9.02
2024-05-09T01:27:42.956Z,9.01
2024-05-09T01:28:42.967Z,9.02
2024-05-09T01:29:42.947Z,9.02
2024-05-09T01:30:42.929Z,9.04
2024-05-09T01:31:43.042Z,9.02
2024-05-09T01:32:43.023Z,8.99
2024-05-09T01:33:43.109Z,9.02
2024-05-09T01:34:42.914Z,9.04
2024-05-09T01:35:43.343Z,9.01
2024-05-09T01:36:42.865Z,8.98
2024-05-09T01:37:42.856Z,8.96
2024-05-09T01:38:42.870Z,8.96
2024-05-09T01:39:42.826Z,8.99
2024-05-09T01:40:42.958Z,8.96
2024-05-09T01:41:42.813Z,8.98
2024-05-09T01:42:43.646Z,8.99
2024-05-09T01:43:42.830Z,8.92
2024-05-09T01:44:42.790Z,8.91
2024-05-09T01:45:42.805Z,8.87
2024-05-09T01:46:42.798Z,8.87
2024-05-09T01:47:43.168Z,8.98
2024-05-09T01:48:42.788Z,8.99
2024-05-09T01:49:42.962Z,9.08
2024-05-09T01:50:43.468Z,9.04
2024-05-09T01:51:42.702Z,9.08
2024-05-09T01:52:42.888Z,9.13
2024-05-09T01:53:42.700Z,9.18
2024-05-09T01:54:42.689Z,9.21
2024-05-09T01:55:42.834Z,9.26
2024-05-09T01:56:42.718Z,9.32
2024-05-09T01:57:42.641Z,9.38
2024-05-09T01:58:42.693Z,9.46
2024-05-09T01:59:42.635Z,9.46
2024-05-09T02:00:43.581Z,9.50
2024-05-09T02:01:56.149Z,9.50
2024-05-09T02:02:43.694Z,9.53
2024-05-09T02:03:42.696Z,9.58
2024-05-09T02:04:42.702Z,9.60
2024-05-09T02:05:42.867Z,9.61
2024-05-09T02:06:42.547Z,9.60
2024-05-09T02:07:42.538Z,9.65
2024-05-09T02:08:42.604Z,9.68
2024-05-09T02:09:42.527Z,9.66
2024-05-09T02:10:42.593Z,9.68
2024-05-09T02:11:42.551Z,9.69
2024-05-09T02:12:42.483Z,9.71
2024-05-09T02:13:42.486Z,9.76
2024-05-09T02:14:42.468Z,9.76
2024-05-09T02:15:42.554Z,9.75
2024-05-09T02:16:42.443Z,9.75
2024-05-09T02:17:42.681Z,9.74
2024-05-09T02:18:42.509Z,9.75
2024-05-09T02:19:42.541Z,9.71
2024-05-09T02:20:43.296Z,9.71
2024-05-09T02:21:42.393Z,9.69
2024-05-09T02:22:42.407Z,9.69
2024-05-09T02:23:42.460Z,9.66
2024-05-09T02:24:42.371Z,9.61
2024-05-09T02:25:42.362Z,9.57
2024-05-09T02:26:42.344Z,9.53
2024-05-09T02:27:42.339Z,9.46
2024-05-09T02:28:42.328Z,9.46
2024-05-09T02:29:42.343Z,9.40
2024-05-09T02:30:42.782Z,9.33
2024-05-09T02:31:42.284Z,9.35
2024-05-09T02:32:42.441Z,9.31
2024-05-09T02:33:42.416Z,9.32
2024-05-09T02:34:42.258Z,9.35
2024-05-09T02:35:43.348Z,9.33
2024-05-09T02:36:42.244Z,9.35
2024-05-09T02:37:42.229Z,9.38
2024-05-09T02:38:42.258Z,9.39
2024-05-09T02:39:42.213Z,9.46
2024-05-09T02:40:42.208Z,9.43
2024-05-09T02:41:42.183Z,9.50
2024-05-09T02:42:42.218Z,9.48
2024-05-09T02:43:42.180Z,9.53
2024-05-09T02:44:42.154Z,9.58
2024-05-09T02:45:42.187Z,9.57
2024-05-09T02:46:42.138Z,9.64
2024-05-09T02:47:42.208Z,9.64
2024-05-09T02:48:42.151Z,9.61
2024-05-09T02:49:42.095Z,9.61
2024-05-09T02:50:42.423Z,9.60
2024-05-09T02:51:42.081Z,9.65
2024-05-09T02:52:42.087Z,9.65
2024-05-09T02:53:42.095Z,9.69
2024-05-09T02:54:42.055Z,9.66
2024-05-09T02:55:42.526Z,9.66
2024-05-09T02:56:42.102Z,9.71
2024-05-09T02:57:42.022Z,9.72
2024-05-09T02:58:42.021Z,9.74
2024-05-09T02:59:41.996Z,9.78
2024-05-09T03:00:43.070Z,9.79
2024-05-09T03:01:42.126Z,9.83
2024-05-09T03:02:42.075Z,9.87
2024-05-09T03:03:42.171Z,9.89
2024-05-09T03:04:42.067Z,9.90
2024-05-09T03:05:42.363Z,9.96
2024-05-09T03:06:41.955Z,9.99
2024-05-09T03:07:41.924Z,10.04
2024-05-09T03:08:41.952Z,10.04
2024-05-09T03:09:42.054Z,10.05
2024-05-09T03:10:41.899Z,10.11
2024-05-09T03:11:41.985Z,10.15
2024-05-09T03:12:41.905Z,10.14
2024-05-09T03:13:41.854Z,10.17
2024-05-09T03:14:41.839Z,10.14
2024-05-09T03:15:41.824Z,10.17
2024-05-09T03:16:41.820Z,10.15
2024-05-09T03:17:42.091Z,10.12
2024-05-09T03:18:41.976Z,10.15
2024-05-09T03:19:41.792Z,10.14
2024-05-09T03:20:41.842Z,10.17
2024-05-09T03:21:41.770Z,10.14
2024-05-09T03:22:41.762Z,10.18
2024-05-09T03:23:41.886Z,10.15
2024-05-09T03:24:41.738Z,10.15
2024-05-09T03:25:41.735Z,10.17
2024-05-09T03:26:41.817Z,10.15
2024-05-09T03:27:41.706Z,10.17
2024-05-09T03:28:41.702Z,10.15
2024-05-09T03:29:41.691Z,10.14
2024-05-09T03:30:43.157Z,10.14
2024-05-09T03:31:41.662Z,10.14
2024-05-09T03:32:41.784Z,10.14
2024-05-09T03:33:41.758Z,10.15
2024-05-09T03:34:41.648Z,10.09
2024-05-09T03:35:41.638Z,10.12
2024-05-09T03:36:42.430Z,10.11
2024-05-09T03:37:41.602Z,10.08
2024-05-09T03:38:41.628Z,10.11
2024-05-09T03:39:41.582Z,10.11
2024-05-09T03:40:41.575Z,10.11
2024-05-09T03:41:41.638Z,10.12
2024-05-09T03:42:41.560Z,10.14
2024-05-09T03:43:41.533Z,10.14
2024-05-09T03:44:41.588Z,10.14
2024-05-09T03:45:41.527Z,10.12
2024-05-09T03:46:41.531Z,10.15
2024-05-09T03:47:41.838Z,10.14
2024-05-09T03:48:41.554Z,10.15
2024-05-09T03:49:41.490Z,10.15
2024-05-09T03:50:41.683Z,10.15
2024-05-09T03:51:41.459Z,10.14
2024-05-09T03:52:41.589Z,10.15
2024-05-09T03:53:41.470Z,10.18
2024-05-09T03:54:41.425Z,10.17
2024-05-09T03:55:41.420Z,10.17
2024-05-09T03:56:41.460Z,10.17
2024-05-09T03:57:41.386Z,10.15
2024-05-09T03:58:41.389Z,10.17
2024-05-09T03:59:42.211Z,10.15
2024-05-09T04:00:41.488Z,10.11
2024-05-09T04:01:41.484Z,10.18
2024-05-09T04:02:41.457Z,10.17
2024-05-09T04:03:41.473Z,10.17
2024-05-09T04:04:41.377Z,10.14
2024-05-09T04:05:42.580Z,10.17
2024-05-09T04:06:41.302Z,10.17
2024-05-09T04:07:41.299Z,10.17
2024-05-09T04:08:41.449Z,10.15
2024-05-09T04:09:41.273Z,10.20
2024-05-09T04:10:41.264Z,10.20
2024-05-09T04:11:41.444Z,10.15
2024-05-09T04:12:41.233Z,10.14
2024-05-09T04:13:41.238Z,10.17
2024-05-09T04:14:41.297Z,10.15
2024-05-09T04:15:41.206Z,10.18
2024-05-09T04:16:41.200Z,10.17
2024-05-09T04:17:41.395Z,10.15
2024-05-09T04:18:41.329Z,10.18
2024-05-09T04:19:41.202Z,10.22
2024-05-09T04:20:41.596Z,10.25
2024-05-09T04:21:41.200Z,10.26
2024-05-09T04:22:41.134Z,10.25
2024-05-09T04:23:41.243Z,10.26
2024-05-09T04:24:41.147Z,10.29
2024-05-09T04:25:41.492Z,10.29
2024-05-09T04:26:41.129Z,10.30
2024-05-09T04:27:41.084Z,10.36
2024-05-09T04:28:41.068Z,10.34
2024-05-09T04:29:41.074Z,10.40
2024-05-09T04:30:42.055Z,10.41
2024-05-09T04:31:41.056Z,10.42
2024-05-09T04:32:41.229Z,10.42
2024-05-09T04:33:41.147Z,10.45
2024-05-09T04:34:41.083Z,10.47
2024-05-09T04:35:41.108Z,10.48
2024-05-09T04:36:43.879Z,10.53
2024-05-09T04:37:40.983Z,10.55
2024-05-09T04:38:41.041Z,10.53
2024-05-09T04:39:40.960Z,10.59
2024-05-09T04:40:40.957Z,10.60
2024-05-09T04:41:41.289Z,10.61
2024-05-09T04:42:40.929Z,10.66
2024-05-09T04:43:40.914Z,10.67
2024-05-09T04:44:40.953Z,10.67
2024-05-09T04:45:40.986Z,10.70
2024-05-09T04:46:40.889Z,10.70
2024-05-09T04:47:41.186Z,10.74
2024-05-09T04:48:41.026Z,10.74
2024-05-09T04:49:40.913Z,10.76
2024-05-09T04:50:40.997Z,10.78
2024-05-09T04:51:40.840Z,10.78
2024-05-09T04:52:41.640Z,10.81
2024-05-09T04:53:40.993Z,10.85
2024-05-09T04:54:40.815Z,10.84
2024-05-09T04:55:40.954Z,10.88
2024-05-09T04:56:40.832Z,10.91
2024-05-09T04:57:40.781Z,10.92
2024-05-09T04:58:40.782Z,10.94
2024-05-09T04:59:40.845Z,10.99
2024-05-09T05:00:41.446Z,10.97
2024-05-09T05:01:40.737Z,11.00
2024-05-09T05:02:40.789Z,11.02
2024-05-09T05:03:41.006Z,11.06
2024-05-09T05:04:40.816Z,11.10
2024-05-09T05:05:41.273Z,11.14
2024-05-09T05:06:40.684Z,11.15
2024-05-09T05:07:40.675Z,11.19
2024-05-09T05:08:40.747Z,11.27
2024-05-09T05:09:40.655Z,11.29
2024-05-09T05:10:40.671Z,11.37
2024-05-09T05:11:40.831Z,11.40
2024-05-09T05:12:40.606Z,11.44
2024-05-09T05:13:41.691Z,11.46
2024-05-09T05:14:40.643Z,11.49
2024-05-09T05:15:40.590Z,11.52
2024-05-09T05:16:40.573Z,11.57
2024-05-09T05:17:40.760Z,11.58
2024-05-09T05:18:40.627Z,11.60
2024-05-09T05:19:40.654Z,11.61
2024-05-09T05:20:40.615Z,11.64
2024-05-09T05:21:40.512Z,11.67
2024-05-09T05:22:40.505Z,11.67
2024-05-09T05:23:40.675Z,11.75
2024-05-09T05:24:40.489Z,11.78
2024-05-09T05:25:40.508Z,11.82
2024-05-09T05:26:40.526Z,11.88
2024-05-09T05:27:40.449Z,11.94
2024-05-09T05:28:40.447Z,11.98
2024-05-09T05:29:40.502Z,11.98
2024-05-09T05:30:40.980Z,12.04
2024-05-09T05:31:40.449Z,12.07
2024-05-09T05:32:40.551Z,12.14
2024-05-09T05:33:40.503Z,12.16
2024-05-09T05:34:40.374Z,12.20
2024-05-09T05:35:40.446Z,12.27
2024-05-09T05:36:40.350Z,12.31
2024-05-09T05:37:40.344Z,12.32
2024-05-09T05:38:40.406Z,12.35
2024-05-09T05:39:40.327Z,12.37
2024-05-09T05:40:41.095Z,12.38
2024-05-09T05:41:40.312Z,12.39
2024-05-09T05:42:40.305Z,12.42
2024-05-09T05:43:40.304Z,12.46
2024-05-09T05:44:40.340Z,12.50
2024-05-09T05:45:40.273Z,12.56
2024-05-09T05:46:40.270Z,12.62
2024-05-09T05:47:40.477Z,12.56
2024-05-09T05:48:40.376Z,12.57
2024-05-09T05:49:40.329Z,12.60
2024-05-09T05:50:40.296Z,12.64
2024-05-09T05:51:40.219Z,12.64
2024-05-09T05:52:40.189Z,12.65
2024-05-09T05:53:40.356Z,12.64
2024-05-09T05:54:40.162Z,12.54
2024-05-09T05:55:40.281Z,12.56
2024-05-09T05:56:40.203Z,12.57
2024-05-09T05:57:40.131Z,12.67
2024-05-09T05:58:40.123Z,12.70
2024-05-09T05:59:40.234Z,12.71
2024-05-09T06:00:41.094Z,12.75
2024-05-09T06:01:40.094Z,12.75
2024-05-09T06:02:40.746Z,12.78
2024-05-09T06:03:40.575Z,12.75
2024-05-09T06:04:40.090Z,12.75
2024-05-09T06:05:40.882Z,12.77
2024-05-09T06:06:40.037Z,12.79
2024-05-09T06:07:40.049Z,12.78
2024-05-09T06:08:40.087Z,12.85
2024-05-09T06:09:40.006Z,12.85
2024-05-09T06:10:41.251Z,12.85
2024-05-09T06:11:40.219Z,12.90
2024-05-09T06:12:39.963Z,12.97
2024-05-09T06:13:39.999Z,13.01
2024-05-09T06:14:40.062Z,13.00
2024-05-09T06:15:40.040Z,13.01
2024-05-09T06:16:39.926Z,13.04
2024-05-09T06:17:40.042Z,13.10
2024-05-09T06:18:40.211Z,13.15
2024-05-09T06:19:39.961Z,13.22
2024-05-09T06:20:40.502Z,13.28
2024-05-09T06:21:39.904Z,13.38
2024-05-09T06:22:39.858Z,13.44
2024-05-09T06:23:40.037Z,13.49
2024-05-09T06:24:39.843Z,13.57
2024-05-09T06:25:39.931Z,13.63
2024-05-09T06:26:39.900Z,13.64
2024-05-09T06:27:39.830Z,13.66
2024-05-09T06:28:39.796Z,13.70
2024-05-09T06:29:39.885Z,13.77
2024-05-09T06:30:41.778Z,13.82
2024-05-09T06:31:39.790Z,13.87
2024-05-09T06:32:39.919Z,13.82
2024-05-09T06:33:39.949Z,13.89
2024-05-09T06:34:39.871Z,13.95
2024-05-09T06:35:40.101Z,13.87
2024-05-09T06:36:39.726Z,13.81
2024-05-09T06:37:39.821Z,13.70
2024-05-09T06:38:39.900Z,13.60
2024-05-09T06:39:39.700Z,13.55
2024-05-09T06:40:41.333Z,13.54
2024-05-09T06:41:39.728Z,13.60
2024-05-09T06:42:39.758Z,13.73
2024-05-09T06:43:39.654Z,13.82
2024-05-09T06:44:39.674Z,13.95
2024-05-09T06:45:40.085Z,14.02
2024-05-09T06:46:39.694Z,14.07
2024-05-09T06:47:39.877Z,14.07
2024-05-09T06:48:39.864Z,14.07
2024-05-09T06:49:39.636Z,14.21
2024-05-09T06:50:40.286Z,14.25
2024-05-09T06:51:39.567Z,14.25
2024-05-09T06:52:39.553Z,14.28
2024-05-09T06:53:39.661Z,14.37
2024-05-09T06:54:39.530Z,14.36
2024-05-09T06:55:39.539Z,14.36
2024-05-09T06:56:39.580Z,14.43
2024-05-09T06:57:42.489Z,14.37
2024-05-09T06:58:39.495Z,14.33
2024-05-09T06:59:39.542Z,14.37
2024-05-09T07:00:41.358Z,14.35
2024-05-09T07:01:39.600Z,14.33
2024-05-09T07:02:39.669Z,14.40
2024-05-09T07:03:39.534Z,14.35
2024-05-09T07:04:39.522Z,14.40
2024-05-09T07:05:39.543Z,14.61
2024-05-09T07:06:39.407Z,14.68
2024-05-09T07:07:39.399Z,14.62
2024-05-09T07:08:39.540Z,14.80
2024-05-09T07:09:39.382Z,14.96
2024-05-09T07:10:39.385Z,15.02
2024-05-09T07:11:39.480Z,14.99
2024-05-09T07:12:39.332Z,14.95
2024-05-09T07:13:39.329Z,15.03
2024-05-09T07:14:39.391Z,15.29
2024-05-09T07:15:39.322Z,15.43
2024-05-09T07:16:39.301Z,15.78
2024-05-09T07:17:39.519Z,15.97
2024-05-09T07:18:39.547Z,16.31
2024-05-09T07:19:39.378Z,16.53
2024-05-09T07:20:39.380Z,16.56
2024-05-09T07:21:39.250Z,16.56
2024-05-09T07:22:39.231Z,16.53
2024-05-09T07:23:39.288Z,16.66
2024-05-09T07:24:39.213Z,16.85
2024-05-09T07:25:39.217Z,16.98
2024-05-09T07:26:39.314Z,17.18
2024-05-09T07:27:39.193Z,17.03
2024-05-09T07:28:39.301Z,16.60
2024-05-09T07:29:39.243Z,16.41
2024-05-09T07:30:39.155Z,16.43
2024-05-09T07:31:39.161Z,16.50
2024-05-09T07:32:40.128Z,16.57
2024-05-09T07:33:39.312Z,16.58
2024-05-09T07:34:39.193Z,16.93
2024-05-09T07:35:39.179Z,16.82
2024-05-09T07:36:39.087Z,16.94
2024-05-09T07:37:39.199Z,17.00
2024-05-09T07:38:39.249Z,17.01
2024-05-09T07:39:39.063Z,17.41
2024-05-09T07:40:39.045Z,17.68
2024-05-09T07:41:39.393Z,18.05
2024-05-09T07:42:39.027Z,18.21
2024-05-09T07:43:39.039Z,18.21
2024-05-09T07:44:39.063Z,18.37
2024-05-09T07:45:48.973Z,18.47
2024-05-09T07:47:47.689Z,18.45
2024-05-09T07:49:11.922Z,18.11
2024-05-09T07:53:14.314Z,18.60
2024-05-09T07:53:44.545Z,19.16
2024-05-09T07:54:40.049Z,18.87
2024-05-09T07:55:38.998Z,18.94
2024-05-09T07:56:39.184Z,19.13
2024-05-09T07:57:39.760Z,19.22
2024-05-09T07:58:38.880Z,19.46
2024-05-09T07:59:39.017Z,19.62
2024-05-09T08:00:39.287Z,19.81
2024-05-09T08:01:38.989Z,20.05
2024-05-09T08:02:38.864Z,20.26
2024-05-09T08:03:38.959Z,19.86
2024-05-09T08:04:38.871Z,19.08
2024-05-09T08:05:38.903Z,18.41
2024-05-09T08:06:38.814Z,18.69
2024-05-09T08:07:38.767Z,18.63
2024-05-09T08:08:38.745Z,18.30
2024-05-09T08:09:38.937Z,18.60
2024-05-09T08:10:38.852Z,18.45
2024-05-09T08:11:38.819Z,18.72
2024-05-09T08:12:38.736Z,18.65
2024-05-09T08:13:38.706Z,18.35
2024-05-09T08:14:38.687Z,17.82
2024-05-09T08:15:38.734Z,17.36
2024-05-09T08:16:38.669Z,17.15
2024-05-09T08:17:38.758Z,17.08
2024-05-09T08:18:38.841Z,17.37
2024-05-09T08:19:38.688Z,17.55
2024-05-09T08:20:38.634Z,17.78
2024-05-09T08:21:38.690Z,18.07
2024-05-09T08:22:38.608Z,18.11
2024-05-09T08:23:38.594Z,17.97
2024-05-09T08:24:38.617Z,17.81
2024-05-09T08:25:38.733Z,17.72
2024-05-09T08:26:38.567Z,17.75
2024-05-09T08:27:38.573Z,17.62
2024-05-09T08:28:38.769Z,17.33
2024-05-09T08:29:38.587Z,17.16
2024-05-09T08:30:38.757Z,17.04
2024-05-09T08:31:38.665Z,16.96
2024-05-09T08:32:38.583Z,16.53
2024-05-09T08:33:38.790Z,16.34
2024-05-09T08:34:38.558Z,16.38
2024-05-09T08:35:38.460Z,16.46
2024-05-09T08:36:38.466Z,16.63
2024-05-09T08:37:40.580Z,17.14
2024-05-09T08:38:38.434Z,17.78
2024-05-09T08:39:38.470Z,18.54
2024-05-09T08:40:38.717Z,18.87
2024-05-09T08:41:38.390Z,19.00
2024-05-09T08:42:38.413Z,19.18
2024-05-09T08:43:40.649Z,19.22
2024-05-09T08:44:38.376Z,18.99
2024-05-09T08:45:38.429Z,18.94
2024-05-09T08:46:38.372Z,19.06
2024-05-09T08:47:38.415Z,19.18
2024-05-09T08:48:38.559Z,19.40
2024-05-09T08:49:40.851Z,19.62
2024-05-09T08:50:39.764Z,19.59
2024-05-09T08:51:38.341Z,19.48
2024-05-09T08:52:38.282Z,19.31
2024-05-09T08:53:38.269Z,19.39
2024-05-09T08:54:38.320Z,19.18
2024-05-09T08:55:41.962Z,18.69
2024-05-09T08:56:39.250Z,18.39
2024-05-09T08:57:38.307Z,18.18
2024-05-09T08:58:38.232Z,17.71
2024-05-09T08:59:38.216Z,17.70
2024-05-09T09:00:38.314Z,17.96
2024-05-09T09:01:40.087Z,18.11
2024-05-09T09:02:38.339Z,18.18
2024-05-09T09:03:38.466Z,18.20
2024-05-09T09:04:38.320Z,18.14
2024-05-09T09:05:38.365Z,18.11
2024-05-09T09:06:38.561Z,18.14
2024-05-09T09:07:38.151Z,18.33
2024-05-09T09:08:38.134Z,18.57
2024-05-09T09:09:38.135Z,18.75
2024-05-09T09:10:38.166Z,18.88
2024-05-09T09:11:38.112Z,18.94
2024-05-09T09:12:38.095Z,19.00
2024-05-09T09:13:38.078Z,19.11
2024-05-09T09:14:38.059Z,19.22
2024-05-09T09:15:38.083Z,19.32
2024-05-09T09:16:38.048Z,19.22
2024-05-09T09:17:38.097Z,19.28
2024-05-09T09:18:38.346Z,19.36
2024-05-09T09:19:38.008Z,19.39
2024-05-09T09:20:38.083Z,19.56
2024-05-09T09:21:37.998Z,20.02
2024-05-09T09:22:37.969Z,20.72
2024-05-09T09:23:37.956Z,20.66
2024-05-09T09:24:37.977Z,20.42
2024-05-09T09:25:37.941Z,20.20
2024-05-09T09:26:37.931Z,19.95
2024-05-09T09:27:37.969Z,19.87
2024-05-09T09:28:38.004Z,19.73
2024-05-09T09:29:37.908Z,19.37
2024-05-09T09:30:38.310Z,19.46
2024-05-09T09:31:37.891Z,19.81
2024-05-09T09:32:37.974Z,20.18
2024-05-09T09:33:38.138Z,20.42
2024-05-09T09:34:37.898Z,20.35
2024-05-09T09:35:37.841Z,20.11
2024-05-09T09:36:37.857Z,20.10
2024-05-09T09:37:37.807Z,19.95
2024-05-09T09:38:37.957Z,19.44
2024-05-09T09:39:37.838Z,19.25
2024-05-09T09:40:42.503Z,18.98
2024-05-09T09:41:38.776Z,18.90
2024-05-09T09:42:37.913Z,18.80
2024-05-09T09:43:37.752Z,18.60
2024-05-09T09:44:42.033Z,18.55
2024-05-09T09:45:37.792Z,18.15
2024-05-09T09:46:37.801Z,18.03
2024-05-09T09:47:37.865Z,18.12
2024-05-09T09:48:37.745Z,18.26
2024-05-09T09:49:37.722Z,18.39
2024-05-09T09:50:37.715Z,18.60
2024-05-09T09:51:37.689Z,18.72
2024-05-09T09:52:37.668Z,18.69
2024-05-09T09:53:37.641Z,18.72
2024-05-09T09:54:37.717Z,18.75
2024-05-09T09:55:37.648Z,18.51
2024-05-09T09:56:37.630Z,18.52
2024-05-09T09:57:37.680Z,18.58
2024-05-09T09:58:37.648Z,19.31
2024-05-09T09:59:37.578Z,20.13
2024-05-09T10:00:37.737Z,20.70
2024-05-09T10:01:37.676Z,20.52
2024-05-09T10:02:37.991Z,20.59
2024-05-09T10:03:37.778Z,20.18
2024-05-09T10:04:37.595Z,20.05
2024-05-09T10:05:38.470Z,19.78
2024-05-09T10:06:37.652Z,19.84
2024-05-09T10:07:37.524Z,19.87
2024-05-09T10:08:37.507Z,20.87
2024-05-09T10:09:37.541Z,21.14
2024-05-09T10:10:37.535Z,21.01
2024-05-09T10:11:42.002Z,20.87
2024-05-09T10:12:38.545Z,21.37
2024-05-09T10:13:37.458Z,22.02
2024-05-09T10:14:37.436Z,22.36
2024-05-09T10:15:37.470Z,23.09
2024-05-09T10:16:37.411Z,23.98
2024-05-09T10:17:37.527Z,24.62
2024-05-09T10:18:37.667Z,24.28
2024-05-09T10:19:37.432Z,23.43
2024-05-09T10:20:37.404Z,23.05
2024-05-09T10:21:37.465Z,22.80
2024-05-09T10:22:38.177Z,22.45
2024-05-09T10:23:37.336Z,22.03
2024-05-09T10:24:37.372Z,21.72
2024-05-09T10:25:37.316Z,21.71
2024-05-09T10:26:37.355Z,21.58
2024-05-09T10:27:37.347Z,21.58
2024-05-09T10:28:37.291Z,21.43
2024-05-09T10:29:37.269Z,21.37
2024-05-09T10:30:37.726Z,21.19
2024-05-09T10:31:37.338Z,21.13
2024-05-09T10:32:37.296Z,20.97
2024-05-09T10:33:37.620Z,20.89
2024-05-09T10:34:37.346Z,20.82
2024-05-09T10:35:37.212Z,20.92
2024-05-09T10:36:37.234Z,21.54
2024-05-09T10:37:37.214Z,21.64
2024-05-09T10:38:37.190Z,21.79
2024-05-09T10:39:37.281Z,22.09
2024-05-09T10:40:37.202Z,22.57
2024-05-09T10:41:37.138Z,23.54
2024-05-09T10:42:37.188Z,23.72
2024-05-09T10:43:37.120Z,23.23
2024-05-09T10:44:37.126Z,23.35
2024-05-09T10:45:37.162Z,23.55
2024-05-09T10:46:37.096Z,22.68
2024-05-09T10:47:37.166Z,22.17
2024-05-09T10:48:37.140Z,21.75
2024-05-09T10:49:37.093Z,21.07
2024-05-09T10:50:37.057Z,20.74
2024-05-09T10:51:37.069Z,20.43
2024-05-09T10:52:37.044Z,20.06
2024-05-09T10:53:37.016Z,19.76
2024-05-09T10:54:37.068Z,19.61
2024-05-09T10:55:36.999Z,19.48
2024-05-09T10:56:36.998Z,19.51
2024-05-09T10:57:36.986Z,19.83
2024-05-09T10:58:36.976Z,20.50
2024-05-09T10:59:36.971Z,20.28
2024-05-09T11:00:37.031Z,20.14
2024-05-09T11:01:37.088Z,19.87
2024-05-09T11:02:37.092Z,19.88
2024-05-09T11:03:37.387Z,19.74
2024-05-09T11:04:37.155Z,19.66
2024-05-09T11:05:37.133Z,19.59
2024-05-09T11:06:36.958Z,19.76
2024-05-09T11:07:36.875Z,19.94
2024-05-09T11:08:36.877Z,19.86
2024-05-09T11:09:36.871Z,20.02
2024-05-09T11:10:36.885Z,19.95
2024-05-09T11:11:36.869Z,19.95
2024-05-09T11:12:36.911Z,19.98
2024-05-09T11:13:36.810Z,20.08
2024-05-09T11:14:36.822Z,20.10
2024-05-09T11:15:36.808Z,19.88
2024-05-09T11:16:36.800Z,19.43
2024-05-09T11:17:36.918Z,19.39
2024-05-09T11:18:39.073Z,19.55
2024-05-09T11:19:36.921Z,19.81
2024-05-09T11:20:37.064Z,20.20
2024-05-09T11:21:36.753Z,20.85
2024-05-09T11:22:36.862Z,22.43
2024-05-09T11:23:36.733Z,23.43
2024-05-09T11:24:36.725Z,23.61
2024-05-09T11:25:36.691Z,23.31
2024-05-09T11:26:36.684Z,23.12
2024-05-09T11:27:36.727Z,22.91
2024-05-09T11:28:36.667Z,22.82
2024-05-09T11:29:36.649Z,23.00
2024-05-09T11:30:36.717Z,22.75
2024-05-09T11:31:37.595Z,23.87
2024-05-09T11:32:36.774Z,23.69
2024-05-09T11:33:36.868Z,23.19
2024-05-09T11:34:36.631Z,22.61
2024-05-09T11:35:36.598Z,23.36
2024-05-09T11:36:36.598Z,24.28
2024-05-09T11:37:37.293Z,24.85
2024-05-09T11:38:36.587Z,24.90
2024-05-09T11:39:36.552Z,23.46
2024-05-09T11:40:36.630Z,22.54
2024-05-09T11:41:36.529Z,22.57
2024-05-09T11:42:36.572Z,23.00
2024-05-09T11:43:36.505Z,22.64
2024-05-09T11:44:36.503Z,23.35
2024-05-09T11:45:36.532Z,23.72
2024-05-09T11:46:36.487Z,23.55
2024-05-09T11:47:36.540Z,24.02
2024-05-09T11:48:36.677Z,24.69
2024-05-09T11:49:36.476Z,24.35
2024-05-09T11:50:36.627Z,23.04
2024-05-09T11:51:36.455Z,21.86
2024-05-09T11:52:36.425Z,21.50
2024-05-09T11:53:36.405Z,21.19
2024-05-09T11:54:36.427Z,21.49
2024-05-09T11:55:36.850Z,22.27
2024-05-09T11:56:36.478Z,23.31
2024-05-09T11:57:36.366Z,23.27
2024-05-09T11:58:36.365Z,22.47
2024-05-09T11:59:36.350Z,22.06
2024-05-09T12:00:37.685Z,22.20
2024-05-09T12:01:36.429Z,21.96
2024-05-09T12:02:36.408Z,21.42
2024-05-09T12:03:36.385Z,21.58
2024-05-09T12:04:36.439Z,21.71
2024-05-09T12:05:36.426Z,21.34
2024-05-09T12:06:36.423Z,20.97
2024-05-09T12:07:36.257Z,20.55
2024-05-09T12:08:36.256Z,20.10
2024-05-09T12:09:36.278Z,19.81
2024-05-09T12:10:37.027Z,19.46
2024-05-09T12:11:36.268Z,19.71
2024-05-09T12:12:37.383Z,20.14
2024-05-09T12:13:36.275Z,20.32
2024-05-09T12:14:36.198Z,20.69
2024-05-09T12:15:37.561Z,21.67
2024-05-09T12:16:36.229Z,21.56
2024-05-09T12:17:36.224Z,22.25
2024-05-09T12:18:36.249Z,21.52
2024-05-09T12:19:36.189Z,21.16
2024-05-09T12:20:39.076Z,21.68
2024-05-09T12:21:36.184Z,21.32
2024-05-09T12:22:36.115Z,21.19
2024-05-09T12:23:36.090Z,21.44
2024-05-09T12:24:36.154Z,21.79
2024-05-09T12:25:36.173Z,22.49
2024-05-09T12:26:36.063Z,22.46
2024-05-09T12:27:36.111Z,22.98
2024-05-09T12:28:36.060Z,22.67
2024-05-09T12:29:38.678Z,23.78
2024-05-09T12:30:39.167Z,23.97
2024-05-09T12:31:36.014Z,23.15
2024-05-09T12:32:36.114Z,22.70
2024-05-09T12:33:36.133Z,22.22
2024-05-09T12:34:36.156Z,21.79
2024-05-09T12:35:35.968Z,21.49
2024-05-09T12:36:36.021Z,21.44
2024-05-09T12:37:35.953Z,21.24
2024-05-09T12:38:35.948Z,20.87
2024-05-09T12:39:36.360Z,20.74
2024-05-09T12:40:38.339Z,20.61
2024-05-09T12:41:35.916Z,20.59
2024-05-09T12:42:35.937Z,20.36
2024-05-09T12:43:36.431Z,20.38
2024-05-09T12:44:35.882Z,20.51
2024-05-09T12:45:36.113Z,20.42
2024-05-09T12:46:35.905Z,20.57
2024-05-09T12:47:36.116Z,20.70
2024-05-09T12:48:35.957Z,21.04
2024-05-09T12:49:36.044Z,21.22
2024-05-09T12:50:35.988Z,20.97
2024-05-09T12:51:35.912Z,20.91
2024-05-09T12:52:35.794Z,20.84
2024-05-09T12:53:35.787Z,20.66
2024-05-09T12:54:35.808Z,20.58
2024-05-09T12:55:44.078Z,20.77
2024-05-09T12:56:36.750Z,20.88
2024-05-09T12:57:35.782Z,21.06
2024-05-09T12:58:35.735Z,21.03
2024-05-09T12:59:35.733Z,20.80
2024-05-09T13:00:36.192Z,20.89
2024-05-09T13:01:35.808Z,20.73